sensor_id;sensor_type;location;lat;lon;timestamp;temperature;humidity
22940;DHT22;11636;52.086;5.090;2023-05-14T00:01:40;14.10;99.90
22940;DHT22;11636;52.086;5.090;2023-05-14T00:04:28;14.10;99.90
22940;DHT22;11636;52.086;5.090;2023-05-14T00:07:22;14.10;99.90
22940;DHT22;11636;52.086;5.090;2023-05-14T00:10:09;14.10;99.90
22940;DHT22;11636;52.086;5.090;2023-05-14T00:13:04;14.00;99.90
22940;DHT22;11636;52.086;5.090;2023-05-14T00:15:51;14.00;99.90
22940;DHT22;11636;52.086;5.090;2023-05-14T00:18:45;14.00;99.90
22940;DHT22;11636;52.086;5.090;2023-05-14T00:21:32;14.00;99.90
22940;DHT22;11636;52.086;5.090;2023-05-14T00:24:26;13.90;99.90
22940;DHT22;11636;52.086;5.090;2023-05-14T00:27:20;13.90;99.90
22940;DHT22;11636;52.086;5.090;2023-05-14T00:30:07;13.80;99.90
22940;DHT22;11636;52.086;5.090;2023-05-14T00:33:01;13.80;99.90
22940;DHT22;11636;52.086;5.090;2023-05-14T00:35:55;13.80;99.90
22940;DHT22;11636;52.086;5.090;2023-05-14T00:38:49;13.80;99.90
22940;DHT22;11636;52.086;5.090;2023-05-14T00:41:43;13.80;99.90
22940;DHT22;11636;52.086;5.090;2023-05-14T00:44:37;13.70;99.90
22940;DHT22;11636;52.086;5.090;2023-05-14T00:47:31;13.70;99.90
22940;DHT22;11636;52.086;5.090;2023-05-14T00:50:27;13.70;99.90
22940;DHT22;11636;52.086;5.090;2023-05-14T00:53:21;13.70;99.90
22940;DHT22;11636;52.086;5.090;2023-05-14T00:56:15;13.60;99.90
22940;DHT22;11636;52.086;5.090;2023-05-14T00:59:10;13.60;99.90
22940;DHT22;11636;52.086;5.090;2023-05-14T01:01:57;13.60;99.90
22940;DHT22;11636;52.086;5.090;2023-05-14T01:04:51;13.50;99.90
22940;DHT22;11636;52.086;5.090;2023-05-14T01:08:24;13.50;99.90
22940;DHT22;11636;52.086;5.090;2023-05-14T01:11:21;13.50;99.90
22940;DHT22;11636;52.086;5.090;2023-05-14T01:14:45;13.40;99.90
22940;DHT22;11636;52.086;5.090;2023-05-14T01:17:42;13.40;99.90
22940;DHT22;11636;52.086;5.090;2023-05-14T01:20:38;13.40;99.90
22940;DHT22;11636;52.086;5.090;2023-05-14T01:23:32;13.40;99.90
22940;DHT22;11636;52.086;5.090;2023-05-14T01:26:19;13.40;99.90
22940;DHT22;11636;52.086;5.090;2023-05-14T01:29:21;13.30;99.90
22940;DHT22;11636;52.086;5.090;2023-05-14T01:32:09;13.30;99.90
22940;DHT22;11636;52.086;5.090;2023-05-14T01:35:05;13.20;99.90
22940;DHT22;11636;52.086;5.090;2023-05-14T01:37:56;13.20;99.90
22940;DHT22;11636;52.086;5.090;2023-05-14T01:40:50;13.20;99.90
22940;DHT22;11636;52.086;5.090;2023-05-14T01:43:44;13.20;99.90
22940;DHT22;11636;52.086;5.090;2023-05-14T01:46:38;13.20;99.90
22940;DHT22;11636;52.086;5.090;2023-05-14T01:49:25;13.10;99.90
22940;DHT22;11636;52.086;5.090;2023-05-14T01:52:19;13.10;99.90
22940;DHT22;11636;52.086;5.090;2023-05-14T01:55:13;13.10;99.90
22940;DHT22;11636;52.086;5.090;2023-05-14T01:58:01;13.10;99.90
22940;DHT22;11636;52.086;5.090;2023-05-14T02:00:55;13.00;99.90
22940;DHT22;11636;52.086;5.090;2023-05-14T02:03:42;13.00;99.90
22940;DHT22;11636;52.086;5.090;2023-05-14T02:06:36;13.00;99.90
22940;DHT22;11636;52.086;5.090;2023-05-14T02:09:23;13.00;99.90
22940;DHT22;11636;52.086;5.090;2023-05-14T02:12:17;13.00;99.90
22940;DHT22;11636;52.086;5.090;2023-05-14T02:15:04;13.00;99.90
22940;DHT22;11636;52.086;5.090;2023-05-14T02:17:58;13.00;99.90
22940;DHT22;11636;52.086;5.090;2023-05-14T02:20:52;13.00;99.90
22940;DHT22;11636;52.086;5.090;2023-05-14T02:23:46;13.00;99.90
22940;DHT22;11636;52.086;5.090;2023-05-14T02:26:41;13.00;99.90
22940;DHT22;11636;52.086;5.090;2023-05-14T02:29:28;13.00;99.90
22940;DHT22;11636;52.086;5.090;2023-05-14T02:32:22;12.90;99.90
22940;DHT22;11636;52.086;5.090;2023-05-14T02:35:09;12.90;99.90
22940;DHT22;11636;52.086;5.090;2023-05-14T02:38:03;12.90;99.90
22940;DHT22;11636;52.086;5.090;2023-05-14T02:40:50;12.90;99.90
22940;DHT22;11636;52.086;5.090;2023-05-14T02:43:44;12.80;99.90
22940;DHT22;11636;52.086;5.090;2023-05-14T02:46:32;12.80;99.90
22940;DHT22;11636;52.086;5.090;2023-05-14T02:49:25;12.80;99.90
22940;DHT22;11636;52.086;5.090;2023-05-14T02:52:12;12.70;99.90
22940;DHT22;11636;52.086;5.090;2023-05-14T02:55:20;12.70;99.90
22940;DHT22;11636;52.086;5.090;2023-05-14T02:58:15;12.70;99.90
22940;DHT22;11636;52.086;5.090;2023-05-14T03:01:16;12.70;99.90
22940;DHT22;11636;52.086;5.090;2023-05-14T03:04:11;12.60;99.90
22940;DHT22;11636;52.086;5.090;2023-05-14T03:06:58;12.60;99.90
22940;DHT22;11636;52.086;5.090;2023-05-14T03:09:52;12.60;99.90
22940;DHT22;11636;52.086;5.090;2023-05-14T03:12:46;12.60;99.90
22940;DHT22;11636;52.086;5.090;2023-05-14T03:15:40;12.60;99.90
22940;DHT22;11636;52.086;5.090;2023-05-14T03:18:34;12.60;99.90
22940;DHT22;11636;52.086;5.090;2023-05-14T03:21:22;12.60;99.90
22940;DHT22;11636;52.086;5.090;2023-05-14T03:24:16;12.60;99.90
22940;DHT22;11636;52.086;5.090;2023-05-14T03:27:03;12.60;99.90
22940;DHT22;11636;52.086;5.090;2023-05-14T03:29:57;12.60;99.90
22940;DHT22;11636;52.086;5.090;2023-05-14T03:32:51;12.60;99.90
22940;DHT22;11636;52.086;5.090;2023-05-14T03:35:45;12.60;99.90
22940;DHT22;11636;52.086;5.090;2023-05-14T03:38:32;12.60;99.90
22940;DHT22;11636;52.086;5.090;2023-05-14T03:41:26;12.60;99.90
22940;DHT22;11636;52.086;5.090;2023-05-14T03:44:20;12.60;99.90
22940;DHT22;11636;52.086;5.090;2023-05-14T03:47:14;12.60;99.90
22940;DHT22;11636;52.086;5.090;2023-05-14T03:50:01;12.60;99.90
22940;DHT22;11636;52.086;5.090;2023-05-14T03:52:55;12.60;99.90
22940;DHT22;11636;52.086;5.090;2023-05-14T03:55:49;12.60;99.90
22940;DHT22;11636;52.086;5.090;2023-05-14T03:58:43;12.60;99.90
22940;DHT22;11636;52.086;5.090;2023-05-14T04:01:37;12.60;99.90
22940;DHT22;11636;52.086;5.090;2023-05-14T04:04:24;12.60;99.90
22940;DHT22;11636;52.086;5.090;2023-05-14T04:07:18;12.60;99.90
22940;DHT22;11636;52.086;5.090;2023-05-14T04:10:05;12.60;99.90
22940;DHT22;11636;52.086;5.090;2023-05-14T04:12:59;12.50;99.90
22940;DHT22;11636;52.086;5.090;2023-05-14T04:15:46;12.50;99.90
22940;DHT22;11636;52.086;5.090;2023-05-14T04:18:40;12.50;99.90
22940;DHT22;11636;52.086;5.090;2023-05-14T04:21:34;12.60;99.90
22940;DHT22;11636;52.086;5.090;2023-05-14T04:24:28;12.60;99.90
22940;DHT22;11636;52.086;5.090;2023-05-14T04:27:22;12.60;99.90
22940;DHT22;11636;52.086;5.090;2023-05-14T04:30:16;12.60;99.90
22940;DHT22;11636;52.086;5.090;2023-05-14T04:33:03;12.60;99.90
22940;DHT22;11636;52.086;5.090;2023-05-14T04:35:57;12.70;99.90
22940;DHT22;11636;52.086;5.090;2023-05-14T04:38:44;12.70;99.90
22940;DHT22;11636;52.086;5.090;2023-05-14T04:41:38;12.70;99.90
22940;DHT22;11636;52.086;5.090;2023-05-14T04:44:25;12.80;99.90
22940;DHT22;11636;52.086;5.090;2023-05-14T04:47:19;12.80;99.90
22940;DHT22;11636;52.086;5.090;2023-05-14T04:50:13;12.80;99.90
22940;DHT22;11636;52.086;5.090;2023-05-14T04:53:00;12.80;99.90
22940;DHT22;11636;52.086;5.090;2023-05-14T04:55:55;12.80;99.90
22940;DHT22;11636;52.086;5.090;2023-05-14T04:58:42;12.80;99.90
22940;DHT22;11636;52.086;5.090;2023-05-14T05:01:36;12.90;99.90
22940;DHT22;11636;52.086;5.090;2023-05-14T05:04:30;12.90;99.90
22940;DHT22;11636;52.086;5.090;2023-05-14T05:07:24;12.90;99.90
22940;DHT22;11636;52.086;5.090;2023-05-14T05:10:18;12.90;99.90
22940;DHT22;11636;52.086;5.090;2023-05-14T05:13:05;12.90;99.90
22940;DHT22;11636;52.086;5.090;2023-05-14T05:15:59;13.00;99.90
22940;DHT22;11636;52.086;5.090;2023-05-14T05:18:46;13.10;99.90
22940;DHT22;11636;52.086;5.090;2023-05-14T05:21:40;13.20;99.90
22940;DHT22;11636;52.086;5.090;2023-05-14T05:24:27;13.20;99.90
22940;DHT22;11636;52.086;5.090;2023-05-14T05:27:21;13.30;99.90
22940;DHT22;11636;52.086;5.090;2023-05-14T05:30:15;13.30;99.90
22940;DHT22;11636;52.086;5.090;2023-05-14T05:33:02;13.40;99.90
22940;DHT22;11636;52.086;5.090;2023-05-14T05:35:56;13.40;99.90
22940;DHT22;11636;52.086;5.090;2023-05-14T05:38:43;13.50;99.90
22940;DHT22;11636;52.086;5.090;2023-05-14T05:41:38;13.60;99.90
22940;DHT22;11636;52.086;5.090;2023-05-14T05:44:25;13.60;99.90
22940;DHT22;11636;52.086;5.090;2023-05-14T05:47:18;13.70;99.90
22940;DHT22;11636;52.086;5.090;2023-05-14T05:50:06;13.70;99.90
22940;DHT22;11636;52.086;5.090;2023-05-14T05:52:59;13.70;99.90
22940;DHT22;11636;52.086;5.090;2023-05-14T05:55:53;13.80;99.90
22940;DHT22;11636;52.086;5.090;2023-05-14T05:58:47;13.80;99.90
22940;DHT22;11636;52.086;5.090;2023-05-14T06:01:34;13.80;99.90
22940;DHT22;11636;52.086;5.090;2023-05-14T06:04:28;14.00;99.90
22940;DHT22;11636;52.086;5.090;2023-05-14T06:07:15;14.00;99.90
22940;DHT22;11636;52.086;5.090;2023-05-14T06:10:09;14.10;99.90
22940;DHT22;11636;52.086;5.090;2023-05-14T06:12:56;14.20;99.90
22940;DHT22;11636;52.086;5.090;2023-05-14T06:15:50;14.20;99.90
22940;DHT22;11636;52.086;5.090;2023-05-14T06:18:44;14.30;99.90
22940;DHT22;11636;52.086;5.090;2023-05-14T06:21:32;14.20;99.90
22940;DHT22;11636;52.086;5.090;2023-05-14T06:24:25;14.20;99.90
22940;DHT22;11636;52.086;5.090;2023-05-14T06:27:12;14.20;99.90
22940;DHT22;11636;52.086;5.090;2023-05-14T06:30:07;14.40;99.90
22940;DHT22;11636;52.086;5.090;2023-05-14T06:33:07;14.50;99.90
22940;DHT22;11636;52.086;5.090;2023-05-14T06:36:07;14.60;99.90
22940;DHT22;11636;52.086;5.090;2023-05-14T06:39:01;14.70;99.90
22940;DHT22;11636;52.086;5.090;2023-05-14T06:41:55;14.80;99.90
22940;DHT22;11636;52.086;5.090;2023-05-14T06:44:49;14.90;99.90
22940;DHT22;11636;52.086;5.090;2023-05-14T06:47:43;15.00;99.90
22940;DHT22;11636;52.086;5.090;2023-05-14T06:50:30;15.20;99.90
22940;DHT22;11636;52.086;5.090;2023-05-14T06:53:24;15.30;99.90
22940;DHT22;11636;52.086;5.090;2023-05-14T06:56:11;15.40;99.90
22940;DHT22;11636;52.086;5.090;2023-05-14T06:59:06;15.40;99.90
22940;DHT22;11636;52.086;5.090;2023-05-14T07:02:00;15.40;99.90
22940;DHT22;11636;52.086;5.090;2023-05-14T07:04:48;15.50;99.90
22940;DHT22;11636;52.086;5.090;2023-05-14T07:07:41;15.60;99.90
22940;DHT22;11636;52.086;5.090;2023-05-14T07:10:35;15.70;99.90
22940;DHT22;11636;52.086;5.090;2023-05-14T07:13:23;15.90;99.90
22940;DHT22;11636;52.086;5.090;2023-05-14T07:16:16;16.00;99.90
22940;DHT22;11636;52.086;5.090;2023-05-14T07:19:03;16.00;99.90
22940;DHT22;11636;52.086;5.090;2023-05-14T07:21:57;16.00;99.90
22940;DHT22;11636;52.086;5.090;2023-05-14T07:24:51;16.00;99.90
22940;DHT22;11636;52.086;5.090;2023-05-14T07:27:45;16.00;99.90
22940;DHT22;11636;52.086;5.090;2023-05-14T07:30:32;16.10;99.90
22940;DHT22;11636;52.086;5.090;2023-05-14T07:33:26;16.10;99.90
22940;DHT22;11636;52.086;5.090;2023-05-14T07:36:20;16.20;99.90
22940;DHT22;11636;52.086;5.090;2023-05-14T07:39:07;16.30;99.90
22940;DHT22;11636;52.086;5.090;2023-05-14T07:42:03;16.30;99.90
22940;DHT22;11636;52.086;5.090;2023-05-14T07:44:50;16.30;99.90
22940;DHT22;11636;52.086;5.090;2023-05-14T07:47:44;16.30;99.90
22940;DHT22;11636;52.086;5.090;2023-05-14T07:50:32;16.30;99.90
22940;DHT22;11636;52.086;5.090;2023-05-14T07:53:25;16.30;99.90
22940;DHT22;11636;52.086;5.090;2023-05-14T07:56:12;16.40;99.90
22940;DHT22;11636;52.086;5.090;2023-05-14T07:59:06;16.40;99.90
22940;DHT22;11636;52.086;5.090;2023-05-14T08:01:54;16.20;99.90
22940;DHT22;11636;52.086;5.090;2023-05-14T08:04:47;16.20;99.90
22940;DHT22;11636;52.086;5.090;2023-05-14T08:07:35;16.10;99.90
22940;DHT22;11636;52.086;5.090;2023-05-14T08:10:28;16.00;99.90
22940;DHT22;11636;52.086;5.090;2023-05-14T08:13:22;16.10;99.90
22940;DHT22;11636;52.086;5.090;2023-05-14T08:16:10;16.10;99.90
22940;DHT22;11636;52.086;5.090;2023-05-14T08:19:04;16.20;99.90
22940;DHT22;11636;52.086;5.090;2023-05-14T08:21:51;16.30;99.90
22940;DHT22;11636;52.086;5.090;2023-05-14T08:24:44;16.40;99.90
22940;DHT22;11636;52.086;5.090;2023-05-14T08:27:32;16.60;99.90
22940;DHT22;11636;52.086;5.090;2023-05-14T08:30:26;16.70;99.90
22940;DHT22;11636;52.086;5.090;2023-05-14T08:33:13;16.80;99.90
22940;DHT22;11636;52.086;5.090;2023-05-14T08:36:07;17.00;99.90
22940;DHT22;11636;52.086;5.090;2023-05-14T08:38:54;17.10;99.90
22940;DHT22;11636;52.086;5.090;2023-05-14T08:41:47;17.20;99.90
22940;DHT22;11636;52.086;5.090;2023-05-14T08:44:47;17.10;99.90
22940;DHT22;11636;52.086;5.090;2023-05-14T08:47:46;17.20;99.90
22940;DHT22;11636;52.086;5.090;2023-05-14T08:50:42;17.40;99.90
22940;DHT22;11636;52.086;5.090;2023-05-14T08:53:36;17.70;99.90
22940;DHT22;11636;52.086;5.090;2023-05-14T08:56:32;17.80;99.90
22940;DHT22;11636;52.086;5.090;2023-05-14T08:59:26;17.90;99.90
22940;DHT22;11636;52.086;5.090;2023-05-14T09:02:28;18.00;99.90
22940;DHT22;11636;52.086;5.090;2023-05-14T09:05:23;18.00;99.90
22940;DHT22;11636;52.086;5.090;2023-05-14T09:08:12;18.00;99.90
22940;DHT22;11636;52.086;5.090;2023-05-14T09:11:05;18.10;99.90
22940;DHT22;11636;52.086;5.090;2023-05-14T09:13:53;18.10;99.90
22940;DHT22;11636;52.086;5.090;2023-05-14T09:16:48;18.30;99.90
22940;DHT22;11636;52.086;5.090;2023-05-14T09:19:43;18.40;99.90
22940;DHT22;11636;52.086;5.090;2023-05-14T09:22:33;18.50;99.90
22940;DHT22;11636;52.086;5.090;2023-05-14T09:25:28;18.50;99.90
22940;DHT22;11636;52.086;5.090;2023-05-14T09:28:16;18.60;99.90
22940;DHT22;11636;52.086;5.090;2023-05-14T09:31:10;18.50;99.90
22940;DHT22;11636;52.086;5.090;2023-05-14T09:33:58;18.40;99.90
22940;DHT22;11636;52.086;5.090;2023-05-14T09:39:43;18.40;99.90
22940;DHT22;11636;52.086;5.090;2023-05-14T09:42:37;18.40;99.90
22940;DHT22;11636;52.086;5.090;2023-05-14T09:45:30;18.50;99.90
22940;DHT22;11636;52.086;5.090;2023-05-14T09:48:18;18.70;99.90
22940;DHT22;11636;52.086;5.090;2023-05-14T09:51:12;18.80;99.90
22940;DHT22;11636;52.086;5.090;2023-05-14T09:53:59;18.90;99.90
22940;DHT22;11636;52.086;5.090;2023-05-14T09:56:53;19.10;99.90
22940;DHT22;11636;52.086;5.090;2023-05-14T09:59:48;19.40;99.90
22940;DHT22;11636;52.086;5.090;2023-05-14T10:02:43;19.50;99.90
22940;DHT22;11636;52.086;5.090;2023-05-14T10:05:34;19.40;99.90
22940;DHT22;11636;52.086;5.090;2023-05-14T10:08:35;19.40;99.90
22940;DHT22;11636;52.086;5.090;2023-05-14T10:11:33;19.40;99.90
22940;DHT22;11636;52.086;5.090;2023-05-14T10:14:37;19.50;99.90
22940;DHT22;11636;52.086;5.090;2023-05-14T10:17:33;19.60;99.90
22940;DHT22;11636;52.086;5.090;2023-05-14T10:20:30;19.80;99.90
22940;DHT22;11636;52.086;5.090;2023-05-14T10:23:24;20.00;99.90
22940;DHT22;11636;52.086;5.090;2023-05-14T10:26:11;20.10;99.90
22940;DHT22;11636;52.086;5.090;2023-05-14T10:29:06;20.30;99.90
22940;DHT22;11636;52.086;5.090;2023-05-14T10:31:54;20.20;99.90
22940;DHT22;11636;52.086;5.090;2023-05-14T10:34:48;20.20;99.90
22940;DHT22;11636;52.086;5.090;2023-05-14T10:37:35;20.20;99.90
22940;DHT22;11636;52.086;5.090;2023-05-14T10:40:29;20.30;99.90
22940;DHT22;11636;52.086;5.090;2023-05-14T10:43:16;20.20;99.90
22940;DHT22;11636;52.086;5.090;2023-05-14T10:46:11;20.30;99.90
22940;DHT22;11636;52.086;5.090;2023-05-14T10:48:59;20.30;99.90
22940;DHT22;11636;52.086;5.090;2023-05-14T10:51:53;20.40;99.90
22940;DHT22;11636;52.086;5.090;2023-05-14T10:54:48;20.50;99.90
22940;DHT22;11636;52.086;5.090;2023-05-14T10:57:44;20.50;99.90
22940;DHT22;11636;52.086;5.090;2023-05-14T11:00:38;20.60;99.90
22940;DHT22;11636;52.086;5.090;2023-05-14T11:03:28;20.70;99.90
22940;DHT22;11636;52.086;5.090;2023-05-14T11:06:25;20.70;99.90
22940;DHT22;11636;52.086;5.090;2023-05-14T11:09:20;20.60;99.90
22940;DHT22;11636;52.086;5.090;2023-05-14T11:12:14;20.60;99.90
22940;DHT22;11636;52.086;5.090;2023-05-14T11:15:06;20.60;99.90
22940;DHT22;11636;52.086;5.090;2023-05-14T11:18:00;20.50;99.90
22940;DHT22;11636;52.086;5.090;2023-05-14T11:21:00;20.40;99.90
22940;DHT22;11636;52.086;5.090;2023-05-14T11:23:55;20.50;99.90
22940;DHT22;11636;52.086;5.090;2023-05-14T11:26:49;20.40;99.90
22940;DHT22;11636;52.086;5.090;2023-05-14T11:29:47;20.40;99.90
22940;DHT22;11636;52.086;5.090;2023-05-14T11:32:43;20.70;99.90
22940;DHT22;11636;52.086;5.090;2023-05-14T11:35:30;20.90;99.90
22940;DHT22;11636;52.086;5.090;2023-05-14T11:38:25;20.90;99.90
22940;DHT22;11636;52.086;5.090;2023-05-14T11:41:13;20.90;99.90
22940;DHT22;11636;52.086;5.090;2023-05-14T11:44:09;20.90;99.90
22940;DHT22;11636;52.086;5.090;2023-05-14T11:46:57;21.10;99.90
22940;DHT22;11636;52.086;5.090;2023-05-14T11:49:51;21.30;99.90
22940;DHT22;11636;52.086;5.090;2023-05-14T11:52:45;21.50;99.90
22940;DHT22;11636;52.086;5.090;2023-05-14T11:55:41;21.50;99.90
22940;DHT22;11636;52.086;5.090;2023-05-14T11:58:31;21.60;99.90
22940;DHT22;11636;52.086;5.090;2023-05-14T12:01:26;21.90;99.90
22940;DHT22;11636;52.086;5.090;2023-05-14T12:04:21;22.00;99.90
22940;DHT22;11636;52.086;5.090;2023-05-14T12:07:14;22.30;99.90
22940;DHT22;11636;52.086;5.090;2023-05-14T12:10:10;22.60;99.90
22940;DHT22;11636;52.086;5.090;2023-05-14T12:13:06;22.50;99.90
22940;DHT22;11636;52.086;5.090;2023-05-14T12:15:54;22.70;99.90
22940;DHT22;11636;52.086;5.090;2023-05-14T12:18:49;22.80;99.90
22940;DHT22;11636;52.086;5.090;2023-05-14T12:21:37;22.50;99.90
22940;DHT22;11636;52.086;5.090;2023-05-14T12:24:31;22.30;99.90
22940;DHT22;11636;52.086;5.090;2023-05-14T12:27:26;22.20;99.90
22940;DHT22;11636;52.086;5.090;2023-05-14T12:30:21;22.10;99.90
22940;DHT22;11636;52.086;5.090;2023-05-14T12:33:15;22.10;99.90
22940;DHT22;11636;52.086;5.090;2023-05-14T12:36:02;22.10;99.90
22940;DHT22;11636;52.086;5.090;2023-05-14T12:39:09;22.10;99.90
22940;DHT22;11636;52.086;5.090;2023-05-14T12:41:56;22.20;99.90
22940;DHT22;11636;52.086;5.090;2023-05-14T12:44:50;22.50;99.80
22940;DHT22;11636;52.086;5.090;2023-05-14T12:47:44;22.80;99.80
22940;DHT22;11636;52.086;5.090;2023-05-14T12:50:38;23.20;99.20
22940;DHT22;11636;52.086;5.090;2023-05-14T12:53:25;23.30;98.20
22940;DHT22;11636;52.086;5.090;2023-05-14T12:56:19;23.10;97.50
22940;DHT22;11636;52.086;5.090;2023-05-14T12:59:07;23.20;97.10
22940;DHT22;11636;52.086;5.090;2023-05-14T13:02:02;23.10;96.40
22940;DHT22;11636;52.086;5.090;2023-05-14T13:04:49;23.00;95.80
22940;DHT22;11636;52.086;5.090;2023-05-14T13:07:43;23.20;96.30
22940;DHT22;11636;52.086;5.090;2023-05-14T13:10:37;23.40;96.10
22940;DHT22;11636;52.086;5.090;2023-05-14T13:13:24;23.60;94.50
22940;DHT22;11636;52.086;5.090;2023-05-14T13:16:18;23.60;94.50
22940;DHT22;11636;52.086;5.090;2023-05-14T13:19:12;23.30;93.50
22940;DHT22;11636;52.086;5.090;2023-05-14T13:22:06;23.20;94.20
22940;DHT22;11636;52.086;5.090;2023-05-14T13:25:00;23.20;94.40
22940;DHT22;11636;52.086;5.090;2023-05-14T13:27:54;23.10;93.40
22940;DHT22;11636;52.086;5.090;2023-05-14T13:31:11;23.00;93.30
22940;DHT22;11636;52.086;5.090;2023-05-14T13:34:05;23.00;93.50
22940;DHT22;11636;52.086;5.090;2023-05-14T13:36:59;23.20;92.40
22940;DHT22;11636;52.086;5.090;2023-05-14T13:39:53;23.10;92.50
22940;DHT22;11636;52.086;5.090;2023-05-14T13:42:47;23.00;93.20
22940;DHT22;11636;52.086;5.090;2023-05-14T13:45:34;23.10;93.20
22940;DHT22;11636;52.086;5.090;2023-05-14T13:48:28;23.30;93.70
22940;DHT22;11636;52.086;5.090;2023-05-14T13:51:23;23.50;92.60
22940;DHT22;11636;52.086;5.090;2023-05-14T13:54:10;23.70;91.90
22940;DHT22;11636;52.086;5.090;2023-05-14T13:57:04;23.80;91.80
22940;DHT22;11636;52.086;5.090;2023-05-14T13:59:58;23.80;92.10
22940;DHT22;11636;52.086;5.090;2023-05-14T14:02:52;23.80;91.30
22940;DHT22;11636;52.086;5.090;2023-05-14T14:05:39;23.70;88.50
22940;DHT22;11636;52.086;5.090;2023-05-14T14:08:33;23.70;88.60
22940;DHT22;11636;52.086;5.090;2023-05-14T14:11:27;23.70;88.50
22940;DHT22;11636;52.086;5.090;2023-05-14T14:14:14;23.70;89.30
22940;DHT22;11636;52.086;5.090;2023-05-14T14:17:08;23.70;87.10
22940;DHT22;11636;52.086;5.090;2023-05-14T14:20:02;23.50;89.10
22940;DHT22;11636;52.086;5.090;2023-05-14T14:22:58;23.60;90.30
22940;DHT22;11636;52.086;5.090;2023-05-14T14:25:52;23.70;89.40
22940;DHT22;11636;52.086;5.090;2023-05-14T14:28:39;23.90;88.00
22940;DHT22;11636;52.086;5.090;2023-05-14T14:31:34;23.70;85.00
22940;DHT22;11636;52.086;5.090;2023-05-14T14:34:21;23.60;82.90
22940;DHT22;11636;52.086;5.090;2023-05-14T14:37:15;23.50;83.40
22940;DHT22;11636;52.086;5.090;2023-05-14T14:40:02;23.50;85.20
22940;DHT22;11636;52.086;5.090;2023-05-14T14:42:57;23.60;83.80
22940;DHT22;11636;52.086;5.090;2023-05-14T14:45:44;23.80;82.20
22940;DHT22;11636;52.086;5.090;2023-05-14T14:48:38;24.00;83.70
22940;DHT22;11636;52.086;5.090;2023-05-14T14:51:33;24.10;83.40
22940;DHT22;11636;52.086;5.090;2023-05-14T14:54:27;24.10;85.00
22940;DHT22;11636;52.086;5.090;2023-05-14T14:57:21;24.20;87.60
22940;DHT22;11636;52.086;5.090;2023-05-14T15:00:09;24.20;89.10
22940;DHT22;11636;52.086;5.090;2023-05-14T15:03:03;24.10;90.70
22940;DHT22;11636;52.086;5.090;2023-05-14T15:05:50;24.10;90.90
22940;DHT22;11636;52.086;5.090;2023-05-14T15:08:45;24.00;91.60
22940;DHT22;11636;52.086;5.090;2023-05-14T15:11:32;23.90;92.10
22940;DHT22;11636;52.086;5.090;2023-05-14T15:14:26;23.60;92.80
22940;DHT22;11636;52.086;5.090;2023-05-14T15:17:13;23.50;93.00
22940;DHT22;11636;52.086;5.090;2023-05-14T15:20:07;23.40;92.90
22940;DHT22;11636;52.086;5.090;2023-05-14T15:23:02;23.50;93.20
22940;DHT22;11636;52.086;5.090;2023-05-14T15:25:49;23.40;93.60
22940;DHT22;11636;52.086;5.090;2023-05-14T15:28:43;23.40;93.90
22940;DHT22;11636;52.086;5.090;2023-05-14T15:31:30;23.20;94.10
22940;DHT22;11636;52.086;5.090;2023-05-14T15:34:24;23.00;94.40
22940;DHT22;11636;52.086;5.090;2023-05-14T15:37:11;22.80;95.20
22940;DHT22;11636;52.086;5.090;2023-05-14T15:40:06;22.80;95.70
22940;DHT22;11636;52.086;5.090;2023-05-14T15:42:56;22.90;96.20
22940;DHT22;11636;52.086;5.090;2023-05-14T15:45:50;23.10;95.90
22940;DHT22;11636;52.086;5.090;2023-05-14T15:48:37;23.00;96.40
22940;DHT22;11636;52.086;5.090;2023-05-14T15:51:31;22.80;96.90
22940;DHT22;11636;52.086;5.090;2023-05-14T15:54:18;22.70;97.30
22940;DHT22;11636;52.086;5.090;2023-05-14T15:57:12;22.60;98.10
22940;DHT22;11636;52.086;5.090;2023-05-14T15:59:59;22.60;98.50
22940;DHT22;11636;52.086;5.090;2023-05-14T16:02:53;22.60;98.60
22940;DHT22;11636;52.086;5.090;2023-05-14T16:05:47;22.40;98.50
22940;DHT22;11636;52.086;5.090;2023-05-14T16:08:34;22.40;99.40
22940;DHT22;11636;52.086;5.090;2023-05-14T16:11:29;22.40;99.50
22940;DHT22;11636;52.086;5.090;2023-05-14T16:14:16;22.40;99.60
22940;DHT22;11636;52.086;5.090;2023-05-14T16:17:10;22.40;99.90
22940;DHT22;11636;52.086;5.090;2023-05-14T16:19:59;22.40;99.70
22940;DHT22;11636;52.086;5.090;2023-05-14T16:22:53;22.20;99.90
22940;DHT22;11636;52.086;5.090;2023-05-14T16:25:40;22.00;99.90
22940;DHT22;11636;52.086;5.090;2023-05-14T16:28:34;21.70;99.90
22940;DHT22;11636;52.086;5.090;2023-05-14T16:31:28;21.40;99.90
22940;DHT22;11636;52.086;5.090;2023-05-14T16:34:17;21.10;99.90
22940;DHT22;11636;52.086;5.090;2023-05-14T16:37:10;20.70;99.90
22940;DHT22;11636;52.086;5.090;2023-05-14T16:39:59;20.40;99.90
22940;DHT22;11636;52.086;5.090;2023-05-14T16:42:52;20.10;99.90
22940;DHT22;11636;52.086;5.090;2023-05-14T16:45:39;19.80;99.90
22940;DHT22;11636;52.086;5.090;2023-05-14T16:48:33;19.60;99.90
22940;DHT22;11636;52.086;5.090;2023-05-14T16:51:20;19.40;99.90
22940;DHT22;11636;52.086;5.090;2023-05-14T16:54:14;19.30;99.90
22940;DHT22;11636;52.086;5.090;2023-05-14T16:57:02;19.20;99.90
22940;DHT22;11636;52.086;5.090;2023-05-14T16:59:55;19.00;99.90
22940;DHT22;11636;52.086;5.090;2023-05-14T17:02:42;18.70;99.90
22940;DHT22;11636;52.086;5.090;2023-05-14T17:05:36;18.70;99.90
22940;DHT22;11636;52.086;5.090;2023-05-14T17:08:30;18.60;99.90
22940;DHT22;11636;52.086;5.090;2023-05-14T17:11:19;18.50;99.90
22940;DHT22;11636;52.086;5.090;2023-05-14T17:14:26;18.40;99.90
22940;DHT22;11636;52.086;5.090;2023-05-14T17:17:19;18.40;99.90
22940;DHT22;11636;52.086;5.090;2023-05-14T17:20:14;18.30;99.90
22940;DHT22;11636;52.086;5.090;2023-05-14T17:23:03;18.30;99.90
22940;DHT22;11636;52.086;5.090;2023-05-14T17:25:56;18.20;99.90
22940;DHT22;11636;52.086;5.090;2023-05-14T17:28:43;18.30;99.90
22940;DHT22;11636;52.086;5.090;2023-05-14T17:31:37;18.30;99.90
22940;DHT22;11636;52.086;5.090;2023-05-14T17:34:24;18.40;99.90
22940;DHT22;11636;52.086;5.090;2023-05-14T17:37:18;18.30;99.90
22940;DHT22;11636;52.086;5.090;2023-05-14T17:40:12;18.20;99.90
22940;DHT22;11636;52.086;5.090;2023-05-14T17:42:59;18.10;99.90
22940;DHT22;11636;52.086;5.090;2023-05-14T17:45:53;18.10;99.90
22940;DHT22;11636;52.086;5.090;2023-05-14T17:48:41;18.00;99.90
22940;DHT22;11636;52.086;5.090;2023-05-14T17:51:34;18.00;99.90
22940;DHT22;11636;52.086;5.090;2023-05-14T17:54:21;18.00;99.90
22940;DHT22;11636;52.086;5.090;2023-05-14T17:57:15;18.00;99.90
22940;DHT22;11636;52.086;5.090;2023-05-14T18:00:03;18.00;99.90
22940;DHT22;11636;52.086;5.090;2023-05-14T18:02:59;17.90;99.90
22940;DHT22;11636;52.086;5.090;2023-05-14T18:05:47;17.70;99.90
22940;DHT22;11636;52.086;5.090;2023-05-14T18:08:40;17.70;99.90
22940;DHT22;11636;52.086;5.090;2023-05-14T18:11:28;17.70;99.90